Waconia, Minnesota
Current Conditions -  °F | °C
As of 8:54 PM on Wednesday 26 Nov 2014 (Local Time) from KGYL Reporting Station
Overcast Overcast  
Wind Chill:   Ceiling: 2400
Heat Index: 18°   Visibility: 7mi
Dew Point: 14°   Wind: 12mph
Humidity: 83%   Direction: 320°NW
Pressure: 30.35"   Gusts: 16mph
Location:  44.85°N, 93.79°W
Report Text: KGYL 270254Z AUTO 32010G14KT 7SM OVC024 M08/M10 A3035 RMK AO2 T10761101
Loading
Personal Weather Stations






























Interactive Weather Map New forecast layout! Learn more

10-Day Weather Forecast

Advertisements
Track Severe Weather on mobile